createdAt,value
2022-11-23T00:01:21.506Z,92.46
2022-11-23T00:03:51.277Z,93.30
2022-11-23T00:06:19.223Z,93.47
2022-11-23T00:08:46.544Z,92.36
2022-11-23T00:11:14.453Z,92.07
2022-11-23T00:13:43.822Z,93.79
2022-11-23T00:16:19.911Z,91.94
2022-11-23T00:18:48.144Z,92.49
2022-11-23T00:21:17.155Z,90.40
2022-11-23T00:23:45.356Z,91.30
2022-11-23T00:26:13.971Z,92.72
2022-11-23T00:28:42.165Z,91.15
2022-11-23T00:31:11.965Z,90.64
2022-11-23T00:33:39.981Z,93.21
2022-11-23T00:36:10.901Z,92.56
2022-11-23T00:38:38.645Z,92.54
2022-11-23T00:41:12.988Z,93.04
2022-11-23T00:43:40.648Z,94.16
2022-11-23T00:46:21.193Z,93.87
2022-11-23T00:48:50.661Z,93.38
2022-11-23T00:51:21.042Z,93.22
2022-11-23T00:53:49.861Z,94.87
2022-11-23T00:56:18.345Z,95.41
2022-11-23T00:58:52.945Z,95.08
2022-11-23T01:01:22.461Z,94.77
2022-11-23T01:03:55.891Z,94.23
2022-11-23T01:06:28.264Z,92.31
2022-11-23T01:08:58.196Z,93.05
2022-11-23T01:11:28.369Z,93.13
2022-11-23T01:13:56.110Z,94.00
2022-11-23T01:16:27.571Z,94.13
2022-11-23T01:18:59.344Z,94.13
2022-11-23T01:21:28.961Z,94.33
2022-11-23T01:23:56.460Z,93.25
2022-11-23T01:26:23.936Z,93.35
2022-11-23T01:28:51.671Z,93.47
2022-11-23T01:31:22.732Z,93.27
2022-11-23T01:33:54.715Z,93.46
2022-11-23T01:36:24.327Z,92.79
2022-11-23T01:38:52.245Z,93.05
2022-11-23T01:41:24.352Z,92.15
2022-11-23T01:43:52.058Z,92.14
2022-11-23T01:46:19.912Z,92.27
2022-11-23T01:48:51.089Z,90.87
2022-11-23T01:51:22.274Z,90.54
2022-11-23T01:53:52.793Z,90.42
2022-11-23T01:56:23.693Z,91.96
2022-11-23T01:58:53.073Z,91.26
2022-11-23T02:01:20.812Z,92.17
2022-11-23T02:03:49.244Z,91.77
2022-11-23T02:06:18.728Z,93.02
2022-11-23T02:08:47.361Z,92.81
2022-11-23T02:11:16.552Z,92.19
2022-11-23T02:13:47.849Z,93.35
2022-11-23T02:16:15.241Z,92.81
2022-11-23T02:18:45.234Z,92.25
2022-11-23T02:21:13.116Z,93.42
2022-11-23T02:23:57.583Z,93.04
2022-11-23T02:26:31.166Z,93.21
2022-11-23T02:29:20.377Z,92.22
2022-11-23T02:32:06.744Z,92.50
2022-11-23T02:34:34.074Z,93.22
2022-11-23T02:37:01.722Z,92.87
2022-11-23T02:39:36.930Z,91.14
2022-11-23T02:42:05.351Z,89.95
2022-11-23T02:44:55.258Z,91.77
2022-11-23T02:47:22.920Z,90.89
2022-11-23T02:49:50.265Z,90.36
2022-11-23T02:52:19.129Z,90.28
2022-11-23T02:54:46.810Z,89.80
2022-11-23T02:57:14.723Z,90.33
2022-11-23T02:59:45.003Z,91.09
2022-11-23T03:02:12.895Z,91.11
2022-11-23T03:04:40.670Z,91.59
2022-11-23T03:07:08.046Z,92.08
2022-11-23T03:09:35.873Z,91.37
2022-11-23T03:12:03.303Z,90.61
2022-11-23T03:14:30.717Z,92.70
2022-11-23T03:16:59.898Z,92.60
2022-11-23T03:19:27.668Z,90.75
2022-11-23T03:21:55.082Z,90.79
2022-11-23T03:24:24.733Z,90.36
2022-11-23T03:26:52.673Z,90.83
2022-11-23T03:29:20.230Z,89.48
2022-11-23T03:31:47.988Z,91.66
2022-11-23T03:34:15.725Z,90.91
2022-11-23T03:36:44.070Z,92.60
2022-11-23T03:39:12.123Z,92.87
2022-11-23T03:41:40.664Z,92.57
2022-11-23T03:44:08.915Z,91.44
2022-11-23T03:46:36.483Z,90.36
2022-11-23T03:49:03.881Z,89.16
2022-11-23T03:51:31.240Z,89.54
2022-11-23T03:53:58.814Z,91.52
2022-11-23T03:56:26.138Z,89.94
2022-11-23T03:58:53.608Z,90.07
2022-11-23T04:01:21.738Z,91.73
2022-11-23T04:03:50.321Z,90.37
2022-11-23T04:06:18.417Z,91.35
2022-11-23T04:08:46.447Z,92.78
2022-11-23T04:11:15.232Z,91.42
2022-11-23T04:13:42.721Z,90.11
2022-11-23T04:16:10.118Z,90.31
2022-11-23T04:18:37.803Z,91.32
2022-11-23T04:21:05.369Z,91.15
2022-11-23T04:23:32.688Z,89.94
2022-11-23T04:26:00.693Z,91.06
2022-11-23T04:28:29.267Z,91.76
2022-11-23T04:30:58.790Z,90.66
2022-11-23T04:33:29.111Z,90.54
2022-11-23T04:35:59.118Z,91.19
2022-11-23T04:38:26.830Z,89.46
2022-11-23T04:40:54.535Z,90.85
2022-11-23T04:43:21.898Z,91.39
2022-11-23T04:45:52.696Z,92.57
2022-11-23T04:48:21.226Z,90.86
2022-11-23T04:50:50.855Z,90.77
2022-11-23T04:53:23.558Z,91.81
2022-11-23T04:55:51.264Z,90.02
2022-11-23T04:58:18.710Z,90.46
2022-11-23T05:00:50.540Z,90.59
2022-11-23T05:03:18.561Z,89.97
2022-11-23T05:05:46.120Z,90.49
2022-11-23T05:08:13.909Z,91.27
2022-11-23T05:10:43.900Z,91.48
2022-11-23T05:13:11.526Z,91.45
2022-11-23T05:15:38.880Z,92.39
2022-11-23T05:18:07.201Z,89.97
2022-11-23T05:20:34.748Z,90.22
2022-11-23T05:23:02.089Z,90.91
2022-11-23T05:25:30.102Z,91.38
2022-11-23T05:28:00.997Z,91.58
2022-11-23T05:30:31.843Z,92.20
2022-11-23T05:33:02.988Z,91.42
2022-11-23T05:35:30.867Z,91.06
2022-11-23T05:37:58.622Z,90.34
2022-11-23T05:40:26.600Z,89.58
2022-11-23T05:42:58.483Z,89.08
2022-11-23T05:45:27.053Z,89.40
2022-11-23T05:47:56.743Z,87.74
2022-11-23T05:50:26.709Z,89.40
2022-11-23T05:53:09.019Z,89.46
2022-11-23T05:55:37.049Z,89.59
2022-11-23T05:58:04.522Z,88.75
2022-11-23T06:00:32.190Z,87.99
2022-11-23T06:03:02.997Z,90.45
2022-11-23T06:05:31.508Z,89.60
2022-11-23T06:07:58.888Z,89.81
2022-11-23T06:10:26.838Z,90.79
2022-11-23T06:12:55.630Z,89.38
2022-11-23T06:15:23.339Z,89.07
2022-11-23T06:17:51.328Z,88.82
2022-11-23T06:20:19.414Z,89.06
2022-11-23T06:22:53.293Z,91.22
2022-11-23T06:25:21.544Z,89.61
2022-11-23T06:27:56.806Z,88.79
2022-11-23T06:30:25.694Z,89.02
2022-11-23T06:32:53.260Z,89.62
2022-11-23T06:35:21.253Z,88.91
2022-11-23T06:37:50.961Z,89.01
2022-11-23T06:40:18.729Z,88.55
2022-11-23T06:42:46.202Z,88.86
2022-11-23T06:45:14.575Z,89.93
2022-11-23T06:47:43.840Z,90.96
2022-11-23T06:50:11.579Z,90.09
2022-11-23T06:52:39.464Z,89.73
2022-11-23T06:55:06.987Z,90.13
2022-11-23T06:57:34.860Z,89.59
2022-11-23T07:00:05.191Z,89.09
2022-11-23T07:02:33.134Z,90.91
2022-11-23T07:05:00.661Z,90.31
2022-11-23T07:07:28.733Z,90.07
2022-11-23T07:09:57.673Z,88.47
2022-11-23T07:12:26.957Z,90.77
2022-11-23T07:14:54.595Z,90.49
2022-11-23T07:17:21.940Z,89.53
2022-11-23T07:19:49.266Z,90.39
2022-11-23T07:22:17.212Z,90.75
2022-11-23T07:24:46.856Z,90.35
2022-11-23T07:27:16.984Z,89.47
2022-11-23T07:29:45.059Z,88.57
2022-11-23T07:32:15.148Z,88.85
2022-11-23T07:34:42.496Z,88.60
2022-11-23T07:37:10.436Z,88.67
2022-11-23T07:39:56.443Z,89.10
2022-11-23T07:42:36.854Z,88.32
2022-11-23T07:45:09.349Z,87.68
2022-11-23T07:47:37.500Z,86.57
2022-11-23T07:50:10.400Z,87.41
2022-11-23T07:52:38.289Z,87.19
2022-11-23T07:55:06.130Z,88.56
2022-11-23T07:57:33.515Z,86.62
2022-11-23T08:00:01.087Z,87.56
2022-11-23T08:02:28.490Z,87.06
2022-11-23T08:04:56.193Z,86.56
2022-11-23T08:07:23.552Z,85.81
2022-11-23T08:09:50.948Z,85.69
2022-11-23T08:12:18.556Z,84.97
2022-11-23T08:14:45.865Z,85.57
2022-11-23T08:17:13.238Z,84.97
2022-11-23T08:19:40.838Z,85.16
2022-11-23T08:22:08.194Z,84.60
2022-11-23T08:24:35.717Z,86.45
2022-11-23T08:27:03.492Z,84.51
2022-11-23T08:29:31.071Z,83.72
2022-11-23T08:31:58.669Z,83.88
2022-11-23T08:34:26.344Z,84.33
2022-11-23T08:36:53.682Z,85.35
2022-11-23T08:39:21.146Z,85.16
2022-11-23T08:41:48.824Z,85.12
2022-11-23T08:44:16.159Z,85.60
2022-11-23T08:46:43.500Z,84.58
2022-11-23T08:49:11.086Z,84.31
2022-11-23T08:51:38.406Z,84.39
2022-11-23T08:54:05.745Z,83.14
2022-11-23T08:56:33.330Z,83.36
2022-11-23T08:59:00.646Z,83.51
2022-11-23T09:01:28.084Z,82.71
2022-11-23T09:03:55.718Z,84.58
2022-11-23T09:06:28.977Z,83.92
2022-11-23T09:08:57.078Z,83.43
2022-11-23T09:11:25.637Z,82.21
2022-11-23T09:13:53.074Z,82.16
2022-11-23T09:16:20.946Z,81.18
2022-11-23T09:18:49.525Z,82.43
2022-11-23T09:21:16.944Z,82.24
2022-11-23T09:23:44.532Z,82.32
2022-11-23T09:26:11.850Z,81.08
2022-11-23T09:28:44.461Z,80.30
2022-11-23T09:31:12.806Z,81.05
2022-11-23T09:33:40.144Z,80.48
2022-11-23T09:36:07.753Z,79.56
2022-11-23T09:41:53.795Z,80.60
2022-11-23T09:44:43.856Z,80.84
2022-11-23T09:47:44.802Z,81.10
2022-11-23T09:50:22.418Z,81.48
2022-11-23T09:52:50.139Z,80.54
2022-11-23T09:55:39.514Z,81.55
2022-11-23T09:58:07.633Z,80.25
2022-11-23T10:00:43.872Z,79.05
2022-11-23T10:03:15.852Z,79.66
2022-11-23T10:05:50.768Z,80.21
2022-11-23T10:08:31.666Z,79.44
2022-11-23T10:11:24.280Z,80.39
2022-11-23T10:14:07.081Z,82.82
2022-11-23T10:16:43.950Z,81.41
2022-11-23T10:19:14.567Z,81.05
2022-11-23T10:22:04.903Z,80.08
2022-11-23T10:24:43.189Z,82.81
2022-11-23T10:27:15.756Z,82.43
2022-11-23T10:29:45.002Z,84.44
2022-11-23T10:32:33.384Z,82.72
2022-11-23T10:35:14.132Z,82.62
2022-11-23T10:37:41.776Z,81.88
2022-11-23T10:40:24.849Z,81.27
2022-11-23T10:42:56.429Z,82.81
2022-11-23T10:45:26.095Z,82.35
2022-11-23T10:47:55.857Z,83.54
2022-11-23T10:50:25.980Z,82.87
2022-11-23T10:52:59.799Z,81.22
2022-11-23T10:55:35.112Z,81.57
2022-11-23T10:58:02.782Z,81.50
2022-11-23T11:00:30.962Z,80.90
2022-11-23T11:02:59.763Z,82.33
2022-11-23T11:08:29.537Z,82.13
2022-11-23T11:10:58.229Z,82.01
2022-11-23T11:13:46.361Z,83.14
2022-11-23T11:16:33.459Z,80.66
2022-11-23T11:19:23.150Z,84.04
2022-11-23T11:21:50.746Z,82.00
2022-11-23T11:24:28.120Z,80.93
2022-11-23T11:27:01.593Z,81.75
2022-11-23T11:29:46.567Z,82.30
2022-11-23T11:32:16.130Z,80.76
2022-11-23T11:34:53.512Z,79.10
2022-11-23T11:37:33.373Z,81.36
2022-11-23T11:40:04.057Z,81.02
2022-11-23T11:43:01.121Z,79.82
2022-11-23T11:45:31.897Z,78.65
2022-11-23T11:48:01.334Z,78.22
2022-11-23T11:50:43.130Z,77.30
2022-11-23T11:53:18.801Z,79.75
2022-11-23T11:55:48.509Z,79.83
2022-11-23T11:58:17.259Z,82.19
2022-11-23T12:00:46.928Z,81.87
2022-11-23T12:03:23.670Z,79.42
2022-11-23T12:05:56.040Z,78.29
2022-11-23T12:08:45.433Z,78.39
2022-11-23T12:11:13.375Z,78.27
2022-11-23T12:13:43.459Z,78.62
2022-11-23T12:16:24.105Z,78.49
2022-11-23T12:19:10.389Z,79.84
2022-11-23T12:21:37.680Z,79.04
2022-11-23T12:24:28.229Z,77.43
2022-11-23T12:27:12.366Z,77.10
2022-11-23T12:29:49.058Z,77.33
2022-11-23T12:32:33.369Z,77.00
2022-11-23T12:35:29.994Z,76.89
2022-11-23T12:38:15.659Z,78.29
2022-11-23T12:40:55.654Z,78.13
2022-11-23T12:43:28.980Z,77.98
2022-11-23T12:46:26.305Z,79.23
2022-11-23T12:49:05.670Z,79.18
2022-11-23T12:51:37.176Z,79.15
2022-11-23T12:54:27.692Z,78.13
2022-11-23T12:57:28.353Z,78.11
2022-11-23T13:00:17.910Z,78.14
2022-11-23T13:02:57.541Z,80.00
2022-11-23T13:05:56.912Z,78.54
2022-11-23T13:08:46.861Z,76.66
2022-11-23T13:11:36.830Z,77.35
2022-11-23T13:14:16.860Z,79.11
2022-11-23T13:16:44.302Z,74.82
2022-11-23T13:19:22.917Z,77.85
2022-11-23T13:21:50.563Z,78.38
2022-11-23T13:24:25.158Z,78.15
2022-11-23T13:27:14.172Z,77.79
2022-11-23T13:29:50.906Z,77.89
2022-11-23T13:32:39.671Z,76.67
2022-11-23T13:35:30.204Z,80.01
2022-11-23T13:37:57.444Z,77.92
2022-11-23T13:40:31.108Z,76.80
2022-11-23T13:43:01.609Z,77.23
2022-11-23T13:45:39.232Z,77.46
2022-11-23T13:48:09.630Z,76.67
2022-11-23T13:50:47.491Z,76.25
2022-11-23T13:53:21.835Z,76.63
2022-11-23T13:55:50.364Z,76.53
2022-11-23T13:58:23.730Z,75.88
2022-11-23T14:00:52.355Z,76.18
2022-11-23T14:04:05.487Z,75.95
2022-11-23T14:06:45.641Z,76.33
2022-11-23T14:09:41.258Z,76.57
2022-11-23T14:12:11.494Z,75.27
2022-11-23T14:15:16.588Z,75.99
2022-11-23T14:18:03.288Z,75.67
2022-11-23T14:20:40.250Z,75.43
2022-11-23T14:23:32.050Z,75.70
2022-11-23T14:26:30.927Z,76.40
2022-11-23T14:29:26.123Z,78.13
2022-11-23T14:32:19.637Z,77.37
2022-11-23T14:35:10.739Z,76.76
2022-11-23T14:37:47.190Z,76.67
2022-11-23T14:40:52.787Z,76.04
2022-11-23T14:43:21.255Z,80.54
2022-11-23T14:45:48.754Z,77.86
2022-11-23T14:48:33.420Z,78.03
2022-11-23T14:51:03.664Z,78.46
2022-11-23T14:53:47.236Z,78.36
2022-11-23T14:56:34.396Z,78.25
2022-11-23T14:59:07.677Z,76.25
2022-11-23T15:01:36.531Z,77.53
2022-11-23T15:04:23.184Z,78.57
2022-11-23T15:06:53.506Z,79.25
2022-11-23T15:09:46.748Z,79.08
2022-11-23T15:12:25.925Z,79.48
2022-11-23T15:14:57.240Z,78.55
2022-11-23T15:17:25.330Z,79.60
2022-11-23T15:19:58.291Z,78.25
2022-11-23T15:22:27.264Z,78.14
2022-11-23T15:24:55.402Z,76.84
2022-11-23T15:27:29.508Z,77.74
2022-11-23T15:29:59.432Z,81.26
2022-11-23T15:32:33.355Z,78.80
2022-11-23T15:35:07.076Z,80.96
2022-11-23T15:37:42.812Z,85.29
2022-11-23T15:40:18.217Z,88.67
2022-11-23T15:42:47.286Z,87.41
2022-11-23T15:45:38.099Z,84.50
2022-11-23T15:48:16.456Z,79.64
2022-11-23T15:50:51.218Z,78.99
2022-11-23T15:53:19.641Z,81.04
2022-11-23T15:55:47.533Z,81.46
2022-11-23T15:58:18.787Z,78.92
2022-11-23T16:00:56.768Z,79.06
2022-11-23T16:03:24.270Z,79.27
2022-11-23T16:06:13.762Z,79.32
2022-11-23T16:08:41.696Z,79.95
2022-11-23T16:11:22.827Z,79.93
2022-11-23T16:13:50.501Z,79.62
2022-11-23T16:16:21.426Z,81.80
2022-11-23T16:18:52.501Z,82.95
2022-11-23T16:21:20.558Z,82.50
2022-11-23T16:23:52.427Z,83.43
2022-11-23T16:26:21.049Z,83.82
2022-11-23T16:28:49.726Z,86.42
2022-11-23T16:31:31.680Z,91.32
2022-11-23T16:33:59.423Z,94.19
2022-11-23T16:36:28.052Z,93.25
2022-11-23T16:38:57.615Z,93.68
2022-11-23T16:41:27.847Z,94.31
2022-11-23T16:43:55.342Z,94.06
2022-11-23T16:46:24.432Z,93.06
2022-11-23T16:48:54.326Z,91.15
2022-11-23T16:51:22.080Z,88.79
2022-11-23T16:56:39.140Z,93.21
2022-11-23T16:59:06.827Z,88.59
2022-11-23T17:01:35.733Z,91.83
2022-11-23T17:04:03.901Z,89.60
2022-11-23T17:06:31.834Z,87.19
2022-11-23T17:09:07.461Z,86.80
2022-11-23T17:11:40.092Z,91.87
2022-11-23T17:14:16.342Z,93.95
2022-11-23T17:16:46.661Z,87.43
2022-11-23T17:19:16.388Z,85.57
2022-11-23T17:21:44.789Z,84.74
2022-11-23T17:24:14.232Z,85.77
2022-11-23T17:26:44.557Z,85.32
2022-11-23T17:29:19.586Z,85.82
2022-11-23T17:31:50.337Z,89.99
2022-11-23T17:34:18.842Z,88.26
2022-11-23T17:36:47.304Z,85.18
2022-11-23T17:39:21.943Z,83.06
2022-11-23T17:41:50.182Z,82.16
2022-11-23T17:44:18.155Z,82.99
2022-11-23T17:46:50.763Z,82.08
2022-11-23T17:49:20.387Z,84.55
2022-11-23T17:51:48.376Z,88.19
2022-11-23T17:54:16.380Z,87.65
2022-11-23T17:56:45.204Z,88.66
2022-11-23T17:59:13.796Z,84.10
2022-11-23T18:01:41.832Z,81.15
2022-11-23T18:04:10.442Z,79.23
2022-11-23T18:06:38.873Z,79.72
2022-11-23T18:09:07.088Z,79.49
2022-11-23T18:11:35.280Z,80.18
2022-11-23T18:14:04.002Z,79.78
2022-11-23T18:16:31.931Z,77.98
2022-11-23T18:19:02.828Z,77.99
2022-11-23T18:21:31.509Z,77.72
2022-11-23T18:24:04.249Z,77.87
2022-11-23T18:26:32.888Z,78.34
2022-11-23T18:29:00.872Z,79.06
2022-11-23T18:31:29.312Z,78.91
2022-11-23T18:33:57.594Z,79.72
2022-11-23T18:36:25.600Z,79.60
2022-11-23T18:38:53.070Z,79.69
2022-11-23T18:41:22.652Z,80.15
2022-11-23T18:43:50.814Z,78.94
2022-11-23T18:46:21.751Z,79.30
2022-11-23T18:48:50.728Z,78.19
2022-11-23T18:51:19.043Z,77.91
2022-11-23T18:53:48.231Z,80.24
2022-11-23T18:56:18.153Z,81.65
2022-11-23T18:58:46.981Z,78.85
2022-11-23T19:01:20.307Z,81.59
2022-11-23T19:03:51.057Z,80.33
2022-11-23T19:06:21.174Z,80.33
2022-11-23T19:08:57.427Z,80.44
2022-11-23T19:11:26.032Z,80.89
2022-11-23T19:13:56.972Z,80.09
2022-11-23T19:16:27.636Z,79.90
2022-11-23T19:19:00.692Z,80.02
2022-11-23T19:21:30.725Z,79.99
2022-11-23T19:23:59.553Z,79.56
2022-11-23T19:26:29.402Z,79.87
2022-11-23T19:28:58.754Z,81.07
2022-11-23T19:31:29.847Z,79.67
2022-11-23T19:36:46.724Z,79.25
2022-11-23T19:39:14.608Z,77.67
2022-11-23T19:41:42.628Z,78.56
2022-11-23T19:44:11.343Z,79.76
2022-11-23T19:46:40.133Z,85.32
2022-11-23T19:49:08.948Z,89.20
2022-11-23T19:51:37.167Z,87.50
2022-11-23T19:54:06.575Z,84.55
2022-11-23T19:56:37.594Z,83.21
2022-11-23T19:59:05.952Z,81.78
2022-11-23T20:01:34.012Z,81.93
2022-11-23T20:04:09.149Z,86.97
2022-11-23T20:06:42.649Z,85.29
2022-11-23T20:09:13.323Z,87.13
2022-11-23T20:11:40.894Z,90.49
2022-11-23T20:14:11.118Z,86.64
2022-11-23T20:16:39.417Z,92.71
2022-11-23T20:19:08.726Z,90.32
2022-11-23T20:21:37.667Z,90.75
2022-11-23T20:24:08.749Z,87.70
2022-11-23T20:26:37.009Z,90.24
2022-11-23T20:29:07.290Z,87.79
2022-11-23T20:31:35.928Z,84.08
2022-11-23T20:34:07.603Z,84.60
2022-11-23T20:36:38.311Z,84.33
2022-11-23T20:39:07.730Z,88.95
2022-11-23T20:41:36.478Z,88.09
2022-11-23T20:44:11.623Z,86.65
2022-11-23T20:49:30.537Z,89.40
2022-11-23T20:51:59.308Z,86.25
2022-11-23T20:54:28.422Z,86.57
2022-11-23T20:56:58.515Z,89.13
2022-11-23T20:59:26.717Z,91.54
2022-11-23T21:01:55.115Z,90.61
2022-11-23T21:04:22.909Z,95.27
2022-11-23T21:06:50.890Z,90.54
2022-11-23T21:09:18.635Z,86.35
2022-11-23T21:12:04.785Z,86.55
2022-11-23T21:14:33.825Z,86.00
2022-11-23T21:17:02.722Z,84.75
2022-11-23T21:19:32.185Z,84.86
2022-11-23T21:22:03.974Z,84.76
2022-11-23T21:24:31.637Z,91.94
2022-11-23T21:26:59.694Z,91.74
2022-11-23T21:29:27.678Z,87.00
2022-11-23T21:31:54.997Z,86.59
2022-11-23T21:34:25.921Z,94.30
2022-11-23T21:36:54.402Z,92.47
2022-11-23T21:39:23.099Z,95.08
2022-11-23T21:41:52.422Z,96.91
2022-11-23T21:44:19.974Z,88.73
2022-11-23T21:46:47.372Z,94.77
2022-11-23T21:49:14.985Z,90.40
2022-11-23T21:51:43.635Z,94.42
2022-11-23T21:54:14.213Z,95.68
2022-11-23T21:56:43.030Z,90.41
2022-11-23T21:59:11.170Z,94.45
2022-11-23T22:01:39.427Z,93.97
2022-11-23T22:04:09.946Z,90.45
2022-11-23T22:06:38.371Z,92.44
2022-11-23T22:09:09.244Z,86.12
2022-11-23T22:11:40.296Z,86.46
2022-11-23T22:14:12.868Z,84.99
2022-11-23T22:16:46.061Z,84.62
2022-11-23T22:19:14.912Z,84.49
2022-11-23T22:21:46.240Z,85.63
2022-11-23T22:24:18.341Z,85.09
2022-11-23T22:26:47.681Z,86.73
2022-11-23T22:29:15.797Z,87.99
2022-11-23T22:31:43.798Z,87.87
2022-11-23T22:34:12.892Z,85.44
2022-11-23T22:36:40.539Z,86.15
2022-11-23T22:39:08.241Z,87.40
2022-11-23T22:41:37.536Z,87.09
2022-11-23T22:44:09.787Z,87.73
2022-11-23T22:46:38.540Z,86.67
2022-11-23T22:49:06.063Z,86.63
2022-11-23T22:51:33.976Z,87.23
2022-11-23T22:54:02.196Z,88.09
2022-11-23T22:56:30.840Z,88.44
2022-11-23T22:58:58.867Z,89.49
2022-11-23T23:01:29.114Z,92.51
2022-11-23T23:03:58.914Z,93.45
2022-11-23T23:06:29.317Z,88.94
2022-11-23T23:08:58.968Z,92.98
2022-11-23T23:11:28.666Z,88.33
2022-11-23T23:13:56.189Z,88.33
2022-11-23T23:16:23.908Z,88.06
2022-11-23T23:18:51.646Z,86.64
2022-11-23T23:21:21.416Z,87.15
2022-11-23T23:23:50.742Z,89.85
2022-11-23T23:26:21.122Z,94.68
2022-11-23T23:28:48.670Z,90.14
2022-11-23T23:31:16.998Z,88.93
2022-11-23T23:33:45.827Z,92.71
2022-11-23T23:36:17.474Z,95.00
2022-11-23T23:38:45.516Z,93.66
2022-11-23T23:41:14.081Z,89.79
2022-11-23T23:43:42.380Z,97.79
2022-11-23T23:46:12.008Z,98.90
2022-11-23T23:48:40.414Z,100.00
2022-11-23T23:51:16.499Z,99.84
2022-11-23T23:53:45.129Z,100.00
2022-11-23T23:56:15.106Z,100.00
2022-11-23T23:58:43.930Z,99.92
